createdAt,value
2018-12-22T00:01:10.390Z,100187.17
2018-12-22T00:03:41.268Z,100185.16
2018-12-22T00:06:10.192Z,100185.03
2018-12-22T00:08:39.085Z,100186.66
2018-12-22T00:11:08.026Z,100186.83
2018-12-22T00:13:36.910Z,100189.80
2018-12-22T00:16:05.855Z,100196.86
2018-12-22T00:18:34.758Z,100192.42
2018-12-22T00:21:03.681Z,100189.86
2018-12-22T00:23:32.628Z,100188.66
2018-12-22T00:26:01.564Z,100185.72
2018-12-22T00:28:30.450Z,100180.91
2018-12-22T00:30:59.361Z,100181.04
2018-12-22T00:33:28.433Z,100176.06
2018-12-22T00:35:57.336Z,100182.59
2018-12-22T00:38:26.257Z,100177.67
2018-12-22T00:40:55.183Z,100180.31
2018-12-22T00:43:24.125Z,100185.02
2018-12-22T00:45:53.084Z,100183.12
2018-12-22T00:48:22.001Z,100186.37
2018-12-22T00:50:50.929Z,100185.14
2018-12-22T00:53:19.832Z,100179.69
2018-12-22T00:55:48.737Z,100190.88
2018-12-22T00:58:17.664Z,100190.44
2018-12-22T01:00:46.586Z,100188.80
2018-12-22T01:03:15.513Z,100193.30
2018-12-22T01:05:44.411Z,100193.20
2018-12-22T01:08:13.321Z,100192.36
2018-12-22T01:10:42.224Z,100189.09
2018-12-22T01:13:11.093Z,100184.38
2018-12-22T01:15:39.966Z,100193.09
2018-12-22T01:18:08.891Z,100188.68
2018-12-22T01:20:37.822Z,100182.05
2018-12-22T01:23:06.756Z,100189.31
2018-12-22T01:25:35.638Z,100189.14
2018-12-22T01:28:04.589Z,100189.73
2018-12-22T01:30:33.489Z,100188.66
2018-12-22T01:33:02.393Z,100187.05
2018-12-22T01:35:31.387Z,100193.08
2018-12-22T01:38:00.191Z,100205.12
2018-12-22T01:40:29.119Z,100193.59
2018-12-22T01:42:58.007Z,100190.31
2018-12-22T01:45:26.928Z,100191.38
2018-12-22T01:47:55.858Z,100194.36
2018-12-22T01:50:24.805Z,100200.74
2018-12-22T01:52:53.679Z,100195.77
2018-12-22T01:55:22.611Z,100191.27
2018-12-22T01:57:51.537Z,100189.09
2018-12-22T02:00:20.454Z,100189.42
2018-12-22T02:02:49.362Z,100185.94
2018-12-22T02:05:18.253Z,100186.17
2018-12-22T02:07:47.187Z,100177.98
2018-12-22T02:10:16.105Z,100169.28
2018-12-22T02:12:44.997Z,100163.56
2018-12-22T02:15:13.887Z,100157.17
2018-12-22T02:17:42.820Z,100150.20
2018-12-22T02:20:11.822Z,100148.05
2018-12-22T02:22:40.626Z,100144.50
2018-12-22T02:25:09.549Z,100136.20
2018-12-22T02:27:38.436Z,100132.22
2018-12-22T02:30:07.454Z,100132.69
2018-12-22T02:32:36.348Z,100130.44
2018-12-22T02:35:05.314Z,100124.45
2018-12-22T02:37:34.225Z,100114.32
2018-12-22T02:40:03.373Z,100125.66
2018-12-22T02:42:32.264Z,100116.42
2018-12-22T02:45:01.182Z,100105.93
2018-12-22T02:47:30.067Z,100100.39
2018-12-22T02:49:58.970Z,100095.75
2018-12-22T02:52:27.879Z,100101.05
2018-12-22T02:54:56.751Z,100103.75
2018-12-22T02:57:25.639Z,100099.59
2018-12-22T02:59:54.537Z,100089.59
2018-12-22T03:02:23.458Z,100082.67
2018-12-22T03:04:52.345Z,100082.58
2018-12-22T03:07:21.218Z,100092.41
2018-12-22T03:09:50.140Z,100092.57
2018-12-22T03:12:19.028Z,100094.08
2018-12-22T03:14:47.912Z,100093.58
2018-12-22T03:17:16.784Z,100101.34
2018-12-22T03:19:45.687Z,100109.14
2018-12-22T03:22:14.591Z,100106.94
2018-12-22T03:24:43.511Z,100102.38
2018-12-22T03:27:12.396Z,100083.38
2018-12-22T03:29:41.293Z,100093.05
2018-12-22T03:32:10.170Z,100085.78
2018-12-22T03:34:39.059Z,100076.20
2018-12-22T03:37:07.980Z,100063.55
2018-12-22T03:39:36.889Z,100040.38
2018-12-22T03:42:05.778Z,100031.60
2018-12-22T03:44:34.702Z,100009.50
2018-12-22T03:47:03.610Z,100006.93
2018-12-22T03:49:32.515Z,100002.97
2018-12-22T03:52:01.438Z,99998.63
2018-12-22T03:54:30.346Z,99999.92
2018-12-22T03:56:59.247Z,100003.75
2018-12-22T03:59:28.117Z,100000.42
2018-12-22T04:01:57.098Z,100005.81
2018-12-22T04:04:25.949Z,99992.03
2018-12-22T04:06:54.838Z,99997.42
2018-12-22T04:09:23.753Z,99996.23
2018-12-22T04:11:52.631Z,99996.94
2018-12-22T04:14:21.524Z,99997.77
2018-12-22T04:16:50.399Z,99993.13
2018-12-22T04:19:19.315Z,100002.13
2018-12-22T04:21:48.232Z,99996.69
2018-12-22T04:24:17.114Z,99999.49
2018-12-22T04:26:46.017Z,100014.65
2018-12-22T04:29:14.895Z,100020.69
2018-12-22T04:31:43.838Z,100020.20
2018-12-22T04:34:12.744Z,100022.83
2018-12-22T04:36:41.656Z,100024.03
2018-12-22T04:39:10.578Z,100023.53
2018-12-22T04:41:39.450Z,100029.95
2018-12-22T04:44:08.365Z,100046.44
2018-12-22T04:46:37.261Z,100043.33
2018-12-22T04:49:06.193Z,100043.48
2018-12-22T04:51:35.140Z,100044.48
2018-12-22T04:54:04.034Z,100058.22
2018-12-22T04:56:32.920Z,100063.65
2018-12-22T04:59:01.847Z,100068.41
2018-12-22T05:01:30.764Z,100074.47
2018-12-22T05:03:59.656Z,100085.80
2018-12-22T05:06:28.579Z,100087.49
2018-12-22T05:08:57.459Z,100098.31
2018-12-22T05:11:26.389Z,100097.81
2018-12-22T05:13:55.291Z,100114.38
2018-12-22T05:16:24.184Z,100118.44
2018-12-22T05:18:53.111Z,100124.53
2018-12-22T05:21:22.042Z,100127.59
2018-12-22T05:23:50.927Z,100133.58
2018-12-22T05:26:19.840Z,100138.30
2018-12-22T05:28:48.750Z,100149.42
2018-12-22T05:31:17.677Z,100159.22
2018-12-22T05:33:46.580Z,100162.71
2018-12-22T05:36:15.516Z,100159.55
2018-12-22T05:38:44.426Z,100164.73
2018-12-22T05:41:13.353Z,100174.84
2018-12-22T05:43:42.253Z,100176.06
2018-12-22T05:46:11.174Z,100184.88
2018-12-22T05:48:40.039Z,100190.28
2018-12-22T05:51:09.078Z,100191.73
2018-12-22T05:53:38.004Z,100203.41
2018-12-22T05:56:06.981Z,100205.91
2018-12-22T05:58:35.912Z,100214.95
2018-12-22T06:01:04.802Z,100217.92
2018-12-22T06:03:33.713Z,100229.27
2018-12-22T06:06:02.585Z,100235.69
2018-12-22T06:08:31.487Z,100240.07
2018-12-22T06:11:00.367Z,100247.02
2018-12-22T06:13:29.297Z,100251.69
2018-12-22T06:15:58.224Z,100258.17
2018-12-22T06:18:27.120Z,100257.29
2018-12-22T06:20:56.062Z,100262.25
2018-12-22T06:23:26.743Z,100270.87
2018-12-22T06:25:53.816Z,100272.34
2018-12-22T06:28:22.721Z,100281.88
2018-12-22T06:30:51.610Z,100281.35
2018-12-22T06:33:20.541Z,100285.67
2018-12-22T06:35:49.457Z,100282.81
2018-12-22T06:38:18.397Z,100300.77
2018-12-22T06:40:47.308Z,100293.20
2018-12-22T06:43:16.213Z,100306.03
2018-12-22T06:45:45.096Z,100305.72
2018-12-22T06:48:14.003Z,100316.72
2018-12-22T06:50:42.890Z,100326.70
2018-12-22T06:53:11.812Z,100323.23
2018-12-22T06:55:40.711Z,100338.73
2018-12-22T06:58:09.600Z,100336.84
2018-12-22T07:00:38.574Z,100352.80
2018-12-22T07:03:07.464Z,100350.48
2018-12-22T07:05:36.337Z,100357.89
2018-12-22T07:08:05.258Z,100366.80
2018-12-22T07:10:34.159Z,100379.33
2018-12-22T07:13:03.021Z,100388.28
2018-12-22T07:15:31.937Z,100395.36
2018-12-22T07:18:00.813Z,100403.98
2018-12-22T07:20:29.699Z,100422.86
2018-12-22T07:22:58.579Z,100429.05
2018-12-22T07:25:27.495Z,100429.83
2018-12-22T07:27:56.386Z,100429.70
2018-12-22T07:30:26.438Z,100448.65
2018-12-22T07:32:57.230Z,100446.36
2018-12-22T07:35:23.101Z,100449.38
2018-12-22T07:37:51.992Z,100461.31
2018-12-22T07:40:20.896Z,100465.16
2018-12-22T07:42:49.798Z,100469.09
2018-12-22T07:45:18.701Z,100485.68
2018-12-22T07:47:47.596Z,100491.31
2018-12-22T07:50:16.488Z,100503.05
2018-12-22T07:52:51.609Z,100502.55
2018-12-22T07:55:14.287Z,100503.46
2018-12-22T07:57:43.182Z,100520.14
2018-12-22T08:00:12.104Z,100531.32
2018-12-22T08:02:40.983Z,100529.69
2018-12-22T08:05:09.971Z,100538.31
2018-12-22T08:07:38.880Z,100543.36
2018-12-22T08:10:08.014Z,100545.56
2018-12-22T08:12:36.905Z,100552.75
2018-12-22T08:15:05.911Z,100552.88
2018-12-22T08:17:34.795Z,100547.47
2018-12-22T08:20:03.705Z,100561.81
2018-12-22T08:22:32.600Z,100561.76
2018-12-22T08:25:01.482Z,100569.57
2018-12-22T08:27:30.393Z,100570.42
2018-12-22T08:29:59.272Z,100580.39
2018-12-22T08:32:28.173Z,100578.19
2018-12-22T08:34:57.058Z,100582.02
2018-12-22T08:37:25.959Z,100599.39
2018-12-22T08:39:54.845Z,100596.55
2018-12-22T08:42:23.741Z,100599.56
2018-12-22T08:44:52.668Z,100600.61
2018-12-22T08:47:21.562Z,100607.47
2018-12-22T08:49:50.476Z,100604.39
2018-12-22T08:52:19.371Z,100611.97
2018-12-22T08:54:48.258Z,100618.95
2018-12-22T08:57:17.164Z,100623.11
2018-12-22T08:59:46.062Z,100629.30
2018-12-22T09:02:14.939Z,100633.72
2018-12-22T09:04:43.871Z,100627.53
2018-12-22T09:07:12.725Z,100625.80
2018-12-22T09:09:41.618Z,100636.70
2018-12-22T09:12:10.508Z,100638.00
2018-12-22T09:14:39.413Z,100641.27
2018-12-22T09:17:08.449Z,100648.83
2018-12-22T09:19:37.336Z,100652.68
2018-12-22T09:22:06.370Z,100658.87
2018-12-22T09:24:35.291Z,100667.08
2018-12-22T09:27:04.176Z,100669.52
2018-12-22T09:29:33.085Z,100670.20
2018-12-22T09:32:01.998Z,100673.75
2018-12-22T09:34:30.893Z,100669.28
2018-12-22T09:36:59.822Z,100691.57
2018-12-22T09:39:28.713Z,100689.23
2018-12-22T09:41:57.622Z,100690.67
2018-12-22T09:44:26.494Z,100693.58
2018-12-22T09:46:55.399Z,100695.79
2018-12-22T09:49:24.310Z,100696.38
2018-12-22T09:51:53.192Z,100706.21
2018-12-22T09:54:22.102Z,100715.34
2018-12-22T09:56:51.020Z,100715.70
2018-12-22T09:59:19.977Z,100716.06
2018-12-22T10:01:48.823Z,100720.27
2018-12-22T10:04:17.730Z,100716.42
2018-12-22T10:06:46.634Z,100728.30
2018-12-22T10:09:15.635Z,100713.71
2018-12-22T10:11:44.655Z,100711.41
2018-12-22T10:14:13.530Z,100716.42
2018-12-22T10:16:42.410Z,100723.25
2018-12-22T10:19:11.345Z,100726.54
2018-12-22T10:21:40.209Z,100722.89
2018-12-22T10:24:09.288Z,100731.02
2018-12-22T10:26:38.115Z,100736.02
2018-12-22T10:29:07.123Z,100732.19
2018-12-22T10:31:35.995Z,100729.75
2018-12-22T10:34:04.943Z,100729.47
2018-12-22T10:36:33.848Z,100732.95
2018-12-22T10:39:02.916Z,100729.03
2018-12-22T10:41:31.795Z,100735.52
2018-12-22T10:44:00.706Z,100735.44
2018-12-22T10:46:29.631Z,100730.83
2018-12-22T10:48:58.500Z,100742.66
2018-12-22T10:51:27.426Z,100740.50
2018-12-22T10:53:56.289Z,100748.80
2018-12-22T10:56:25.206Z,100744.92
2018-12-22T10:58:54.212Z,100752.37
2018-12-22T11:01:26.615Z,100752.28
2018-12-22T11:03:51.992Z,100753.77
2018-12-22T11:06:20.892Z,100771.11
2018-12-22T11:08:49.839Z,100759.20
2018-12-22T11:11:18.746Z,100772.20
2018-12-22T11:13:47.623Z,100768.05
2018-12-22T11:16:16.531Z,100772.11
2018-12-22T11:18:45.488Z,100779.61
2018-12-22T11:21:14.351Z,100784.72
2018-12-22T11:23:43.251Z,100778.52
2018-12-22T11:26:12.172Z,100780.47
2018-12-22T11:28:41.121Z,100774.90
2018-12-22T11:31:10.122Z,100781.23
2018-12-22T11:33:39.042Z,100790.41
2018-12-22T11:36:08.225Z,100786.77
2018-12-22T11:38:37.118Z,100789.33
2018-12-22T11:41:06.124Z,100800.49
2018-12-22T11:43:34.970Z,100798.91
2018-12-22T11:46:04.012Z,100800.16
2018-12-22T11:49:00.845Z,100789.62
2018-12-22T11:51:29.802Z,100794.79
2018-12-22T11:53:58.747Z,100797.00
2018-12-22T11:56:27.657Z,100813.28
2018-12-22T11:58:56.584Z,100822.92
2018-12-22T12:01:25.508Z,100826.44
2018-12-22T12:03:54.413Z,100834.58
2018-12-22T12:06:23.329Z,100842.03
2018-12-22T12:08:52.193Z,100836.30
2018-12-22T12:11:21.074Z,100840.50
2018-12-22T12:13:49.950Z,100852.44
2018-12-22T12:16:44.555Z,100852.44
2018-12-22T12:19:25.296Z,100847.80
2018-12-22T12:21:54.184Z,100843.81
2018-12-22T12:24:23.122Z,100854.89
2018-12-22T12:26:52.024Z,100862.58
2018-12-22T12:29:20.892Z,100868.95
2018-12-22T12:31:52.298Z,100866.37
2018-12-22T12:34:18.691Z,100868.36
2018-12-22T12:36:47.660Z,100871.07
2018-12-22T12:39:16.807Z,100866.86
2018-12-22T12:41:45.923Z,100868.00
2018-12-22T12:44:14.853Z,100882.92
2018-12-22T12:46:51.720Z,100884.63
2018-12-22T12:49:21.205Z,100887.93
2018-12-22T12:51:50.161Z,100875.28
2018-12-22T12:54:20.304Z,100879.48
2018-12-22T12:56:54.556Z,100891.92
2018-12-22T12:59:23.813Z,100887.05
2018-12-22T13:02:00.793Z,100891.69
2018-12-22T13:04:21.653Z,100891.41
2018-12-22T13:06:50.560Z,100896.44
2018-12-22T13:09:19.481Z,100894.34
2018-12-22T13:11:49.529Z,100910.98
2018-12-22T13:14:23.633Z,100912.76
2018-12-22T13:16:52.589Z,100918.68
2018-12-22T13:19:21.506Z,100921.98
2018-12-22T13:21:54.418Z,100922.56
2018-12-22T13:24:23.316Z,100933.09
2018-12-22T13:26:52.245Z,100940.16
2018-12-22T13:29:21.147Z,100938.60
2018-12-22T13:31:50.035Z,100940.02
2018-12-22T13:34:18.917Z,100947.09
2018-12-22T13:36:47.817Z,100943.38
2018-12-22T13:39:25.742Z,100948.00
2018-12-22T13:41:59.020Z,100947.38
2018-12-22T13:44:31.483Z,100948.25
2018-12-22T13:47:01.406Z,100957.60
2018-12-22T13:49:33.421Z,100957.72
2018-12-22T13:52:11.926Z,100961.44
2018-12-22T13:54:42.161Z,100972.66
2018-12-22T13:57:12.007Z,100970.34
2018-12-22T13:59:44.738Z,100972.87
2018-12-22T14:02:18.220Z,100990.13
2018-12-22T14:04:47.855Z,100988.19
2018-12-22T14:07:19.509Z,100992.52
2018-12-22T14:09:55.076Z,101004.53
2018-12-22T14:12:27.444Z,101008.23
2018-12-22T14:14:57.309Z,101001.59
2018-12-22T14:17:36.642Z,101014.09
2018-12-22T14:20:17.033Z,101022.92
2018-12-22T14:22:45.933Z,101018.09
2018-12-22T14:25:22.008Z,101022.29
2018-12-22T14:27:55.227Z,101036.70
2018-12-22T14:30:25.061Z,101041.64
2018-12-22T14:32:54.924Z,101049.80
2018-12-22T14:35:55.079Z,101054.10
2018-12-22T14:38:25.299Z,101062.37
2018-12-22T14:40:54.644Z,101066.70
2018-12-22T14:43:28.251Z,101072.13
2018-12-22T14:45:57.744Z,101073.15
2018-12-22T14:48:27.346Z,101074.63
2018-12-22T14:51:02.512Z,101078.10
2018-12-22T14:53:32.048Z,101088.09
2018-12-22T14:56:03.403Z,101089.18
2018-12-22T14:58:35.447Z,101091.98
2018-12-22T15:01:05.069Z,101094.22
2018-12-22T15:03:34.548Z,101100.42
2018-12-22T15:06:11.038Z,101102.52
2018-12-22T15:08:42.593Z,101108.08
2018-12-22T15:11:14.521Z,101100.80
2018-12-22T15:13:43.725Z,101118.41
2018-12-22T15:16:18.565Z,101122.84
2018-12-22T15:18:50.209Z,101117.39
2018-12-22T15:21:17.239Z,101120.68
2018-12-22T15:23:48.687Z,101126.25
2018-12-22T15:26:23.065Z,101131.23
2018-12-22T15:28:56.988Z,101135.42
2018-12-22T15:31:27.471Z,101138.75
2018-12-22T15:34:08.893Z,101133.39
2018-12-22T15:36:40.483Z,101142.20
2018-12-22T15:39:11.591Z,101141.21
2018-12-22T15:41:42.905Z,101143.31
2018-12-22T15:44:10.366Z,101147.80
2018-12-22T15:46:39.798Z,101160.23
2018-12-22T15:49:09.990Z,101160.36
2018-12-22T15:51:41.426Z,101160.13
2018-12-22T15:54:11.115Z,101153.84
2018-12-22T15:56:40.594Z,101159.50
2018-12-22T15:59:10.030Z,101166.53
2018-12-22T16:01:46.939Z,101167.88
2018-12-22T16:04:14.403Z,101176.80
2018-12-22T16:06:43.714Z,101176.56
2018-12-22T16:09:12.993Z,101175.38
2018-12-22T16:11:44.886Z,101179.45
2018-12-22T16:14:21.575Z,101180.34
2018-12-22T16:16:49.372Z,101190.56
2018-12-22T16:19:22.190Z,101192.00
2018-12-22T16:21:58.988Z,101204.44
2018-12-22T16:24:25.220Z,101196.68
2018-12-22T16:27:03.531Z,101208.75
2018-12-22T16:29:44.051Z,101206.45
2018-12-22T16:32:18.676Z,101203.74
2018-12-22T16:34:56.723Z,101205.59
2018-12-22T16:37:26.734Z,101196.76
2018-12-22T16:40:00.891Z,101198.61
2018-12-22T16:42:36.088Z,101194.95
2018-12-22T16:45:07.385Z,101201.97
2018-12-22T16:47:38.589Z,101205.16
2018-12-22T16:50:11.619Z,101208.77
2018-12-22T16:52:41.204Z,101206.64
2018-12-22T16:55:15.077Z,101210.48
2018-12-22T16:57:53.795Z,101212.05
2018-12-22T17:00:26.521Z,101219.07
2018-12-22T17:03:11.416Z,101224.48
2018-12-22T17:05:46.483Z,101225.10
2018-12-22T17:08:16.173Z,101229.04
2018-12-22T17:10:51.299Z,101230.15
2018-12-22T17:13:23.009Z,101231.65
2018-12-22T17:16:00.494Z,101237.69
2018-12-22T17:18:37.746Z,101242.48
2018-12-22T17:21:38.694Z,101238.39
2018-12-22T17:24:37.253Z,101255.89
2018-12-22T17:27:44.020Z,101262.05
2018-12-22T17:30:18.108Z,101265.59
2018-12-22T17:32:59.134Z,101266.73
2018-12-22T17:35:31.687Z,101269.79
2018-12-22T17:38:06.900Z,101268.55
2018-12-22T17:40:31.595Z,101269.91
2018-12-22T17:43:06.411Z,101271.40
2018-12-22T17:46:04.076Z,101279.77
2018-12-22T17:48:32.965Z,101278.77
2018-12-22T17:51:01.887Z,101275.09
2018-12-22T17:53:30.781Z,101272.00
2018-12-22T17:55:59.682Z,101283.20
2018-12-22T17:58:28.587Z,101284.05
2018-12-22T18:00:57.899Z,101284.80
2018-12-22T18:03:31.172Z,101297.84
2018-12-22T18:06:00.056Z,101294.03
2018-12-22T18:08:29.013Z,101301.41
2018-12-22T18:10:57.921Z,101303.61
2018-12-22T18:13:28.136Z,101306.69
2018-12-22T18:15:55.792Z,101313.45
2018-12-22T18:18:24.709Z,101305.60
2018-12-22T18:20:53.615Z,101310.38
2018-12-22T18:23:22.533Z,101315.44
2018-12-22T18:25:51.421Z,101319.62
2018-12-22T18:28:20.350Z,101318.14
2018-12-22T18:30:49.270Z,101315.20
2018-12-22T18:33:18.170Z,101320.12
2018-12-22T18:35:47.102Z,101319.02
2018-12-22T18:38:15.994Z,101321.45
2018-12-22T18:40:44.915Z,101327.63
2018-12-22T18:43:13.786Z,101336.46
2018-12-22T18:45:42.699Z,101342.88
2018-12-22T18:48:11.667Z,101338.45
2018-12-22T18:50:40.567Z,101343.03
2018-12-22T18:53:09.472Z,101351.48
2018-12-22T18:55:38.388Z,101355.40
2018-12-22T18:58:09.601Z,101358.48
2018-12-22T19:00:38.537Z,101356.94
2018-12-22T19:03:07.500Z,101357.52
2018-12-22T19:05:36.503Z,101366.59
2018-12-22T19:08:16.008Z,101367.58
2018-12-22T19:10:56.891Z,101372.78
2018-12-22T19:13:25.874Z,101373.00
2018-12-22T19:15:54.781Z,101370.29
2018-12-22T19:18:23.666Z,101373.63
2018-12-22T19:20:53.735Z,101373.37
2018-12-22T19:23:24.654Z,101376.08
2018-12-22T19:25:53.789Z,101379.05
2018-12-22T19:28:22.694Z,101375.83
2018-12-22T19:30:51.586Z,101375.97
2018-12-22T19:33:20.499Z,101378.55
2018-12-22T19:35:49.442Z,101376.06
2018-12-22T19:38:18.372Z,101376.58
2018-12-22T19:40:47.530Z,101379.02
2018-12-22T19:43:16.414Z,101382.10
2018-12-22T19:45:45.322Z,101384.55
2018-12-22T19:48:14.212Z,101388.84
2018-12-22T19:50:43.122Z,101386.66
2018-12-22T19:53:12.032Z,101388.12
2018-12-22T19:55:40.953Z,101391.06
2018-12-22T19:58:09.874Z,101385.65
2018-12-22T20:00:38.773Z,101393.09
2018-12-22T20:03:07.715Z,101392.52
2018-12-22T20:05:36.609Z,101388.47
2018-12-22T20:08:05.499Z,101390.11
2018-12-22T20:10:34.422Z,101391.80
2018-12-22T20:13:03.300Z,101392.33
2018-12-22T20:15:32.176Z,101399.83
2018-12-22T20:18:01.094Z,101399.77
2018-12-22T20:20:30.040Z,101396.26
2018-12-22T20:22:58.928Z,101403.37
2018-12-22T20:25:27.856Z,101409.88
2018-12-22T20:27:56.749Z,101409.66
2018-12-22T20:30:25.753Z,101401.31
2018-12-22T20:32:56.310Z,101403.86
2018-12-22T20:35:23.584Z,101401.62
2018-12-22T20:37:52.476Z,101409.39
2018-12-22T20:40:21.431Z,101414.92
2018-12-22T20:42:50.335Z,101411.69
2018-12-22T20:45:19.230Z,101413.80
2018-12-22T20:47:48.119Z,101416.61
2018-12-22T20:50:17.059Z,101415.14
2018-12-22T20:52:45.941Z,101424.20
2018-12-22T20:55:14.852Z,101427.88
2018-12-22T20:57:43.770Z,101428.14
2018-12-22T21:00:12.709Z,101426.79
2018-12-22T21:02:41.616Z,101431.71
2018-12-22T21:05:10.536Z,101437.73
2018-12-22T21:07:39.438Z,101438.74
2018-12-22T21:10:08.395Z,101439.60
2018-12-22T21:12:37.371Z,101445.02
2018-12-22T21:15:06.292Z,101442.42
2018-12-22T21:17:35.178Z,101448.09
2018-12-22T21:20:04.110Z,101443.78
2018-12-22T21:22:32.982Z,101447.34
2018-12-22T21:25:01.906Z,101446.26
2018-12-22T21:27:30.776Z,101459.41
2018-12-22T21:29:59.668Z,101454.86
2018-12-22T21:32:28.541Z,101458.39
2018-12-22T21:34:57.433Z,101459.48
2018-12-22T21:37:26.321Z,101461.58
2018-12-22T21:39:55.214Z,101459.95
2018-12-22T21:42:24.089Z,101465.69
2018-12-22T21:44:52.989Z,101470.34
2018-12-22T21:47:21.863Z,101468.06
2018-12-22T21:49:50.772Z,101471.41
2018-12-22T21:52:19.689Z,101473.42
2018-12-22T21:54:48.621Z,101479.36
2018-12-22T21:57:17.467Z,101473.58
2018-12-22T21:59:46.335Z,101475.04
2018-12-22T22:02:15.223Z,101480.18
2018-12-22T22:04:44.135Z,101487.34
2018-12-22T22:07:13.010Z,101492.30
2018-12-22T22:09:41.919Z,101492.69
2018-12-22T22:12:10.826Z,101497.65
2018-12-22T22:14:39.710Z,101504.34
2018-12-22T22:17:08.632Z,101507.02
2018-12-22T22:19:37.493Z,101511.60
2018-12-22T22:22:06.389Z,101513.45
2018-12-22T22:24:35.256Z,101517.11
2018-12-22T22:27:04.175Z,101519.52
2018-12-22T22:29:33.037Z,101526.22
2018-12-22T22:32:01.996Z,101529.64
2018-12-22T22:34:30.925Z,101530.31
2018-12-22T22:36:59.737Z,101525.23
2018-12-22T22:39:28.605Z,101529.00
2018-12-22T22:41:57.488Z,101527.62
2018-12-22T22:44:26.395Z,101524.84
2018-12-22T22:46:55.260Z,101526.05
2018-12-22T22:49:24.168Z,101533.41
2018-12-22T22:51:53.028Z,101532.08
2018-12-22T22:54:22.022Z,101523.08
2018-12-22T22:56:50.838Z,101522.20
2018-12-22T22:59:19.732Z,101525.88
2018-12-22T23:01:48.639Z,101522.34
2018-12-22T23:04:17.519Z,101524.03
2018-12-22T23:06:46.408Z,101518.11
2018-12-22T23:09:15.308Z,101531.89
2018-12-22T23:11:44.254Z,101530.05
2018-12-22T23:14:13.148Z,101536.81
2018-12-22T23:16:42.097Z,101537.57
2018-12-22T23:19:11.002Z,101536.70
2018-12-22T23:21:39.921Z,101534.87
2018-12-22T23:24:08.853Z,101536.70
2018-12-22T23:26:37.750Z,101537.84
2018-12-22T23:29:06.656Z,101540.30
2018-12-22T23:31:35.604Z,101542.20
2018-12-22T23:34:04.558Z,101544.41
2018-12-22T23:36:33.444Z,101535.53
2018-12-22T23:39:02.372Z,101528.60
2018-12-22T23:41:31.295Z,101534.55
2018-12-22T23:44:00.186Z,101537.30
2018-12-22T23:46:29.087Z,101538.43
2018-12-22T23:48:57.994Z,101534.46
2018-12-22T23:51:26.863Z,101537.55
2018-12-22T23:53:55.774Z,101542.95
2018-12-22T23:56:24.652Z,101539.87
2018-12-22T23:58:53.582Z,101550.77
